sensor_id;sensor_type;location;lat;lon;timestamp;pressure;altitude;pressure_sealevel;temperature;humidity
34586;BME280;20816;50.950;11.108;2023-06-10T00:00:26;98341.56;;;15.33;90.44
34586;BME280;20816;50.950;11.108;2023-06-10T00:02:53;98346.19;;;15.28;90.15
34586;BME280;20816;50.950;11.108;2023-06-10T00:05:20;98344.31;;;15.30;89.96
34586;BME280;20816;50.950;11.108;2023-06-10T00:07:47;98349.34;;;15.36;89.21
34586;BME280;20816;50.950;11.108;2023-06-10T00:10:14;98342.75;;;15.26;88.93
34586;BME280;20816;50.950;11.108;2023-06-10T00:12:42;98349.44;;;15.14;89.24
34586;BME280;20816;50.950;11.108;2023-06-10T00:15:10;98344.09;;;15.16;89.21
34586;BME280;20816;50.950;11.108;2023-06-10T00:17:37;98350.19;;;15.18;89.73
34586;BME280;20816;50.950;11.108;2023-06-10T00:20:10;98347.31;;;15.23;89.13
34586;BME280;20816;50.950;11.108;2023-06-10T00:22:40;98346.13;;;15.30;88.59
34586;BME280;20816;50.950;11.108;2023-06-10T00:25:09;98350.72;;;15.45;88.16
34586;BME280;20816;50.950;11.108;2023-06-10T00:27:37;98332.06;;;15.48;87.61
34586;BME280;20816;50.950;11.108;2023-06-10T00:30:05;98348.94;;;15.46;88.36
34586;BME280;20816;50.950;11.108;2023-06-10T00:32:34;98347.63;;;15.35;88.78
34586;BME280;20816;50.950;11.108;2023-06-10T00:35:02;98353.50;;;15.23;89.52
34586;BME280;20816;50.950;11.108;2023-06-10T00:37:29;98352.69;;;15.21;88.60
34586;BME280;20816;50.950;11.108;2023-06-10T00:39:56;98354.81;;;15.13;89.55
34586;BME280;20816;50.950;11.108;2023-06-10T00:42:23;98360.94;;;15.15;88.95
34586;BME280;20816;50.950;11.108;2023-06-10T00:44:51;98357.88;;;15.24;88.27
34586;BME280;20816;50.950;11.108;2023-06-10T00:47:18;98365.94;;;15.21;88.65
34586;BME280;20816;50.950;11.108;2023-06-10T00:49:45;98368.06;;;15.13;89.02
34586;BME280;20816;50.950;11.108;2023-06-10T00:52:13;98374.50;;;15.07;89.90
34586;BME280;20816;50.950;11.108;2023-06-10T00:54:41;98363.84;;;15.09;90.10
34586;BME280;20816;50.950;11.108;2023-06-10T00:57:08;98363.31;;;15.01;90.07
34586;BME280;20816;50.950;11.108;2023-06-10T00:59:35;98370.47;;;14.99;90.41
34586;BME280;20816;50.950;11.108;2023-06-10T01:02:03;98365.69;;;14.86;91.92
34586;BME280;20816;50.950;11.108;2023-06-10T01:04:30;98374.41;;;14.89;91.13
34586;BME280;20816;50.950;11.108;2023-06-10T01:07:03;98372.44;;;14.94;91.16
34586;BME280;20816;50.950;11.108;2023-06-10T01:15:17;98371.88;;;15.06;90.09
34586;BME280;20816;50.950;11.108;2023-06-10T01:20:29;98371.22;;;15.21;88.74
34586;BME280;20816;50.950;11.108;2023-06-10T01:22:59;98369.31;;;15.25;89.22
34586;BME280;20816;50.950;11.108;2023-06-10T01:25:27;98372.81;;;15.25;89.12
34586;BME280;20816;50.950;11.108;2023-06-10T01:28:02;98374.78;;;15.20;89.56
34586;BME280;20816;50.950;11.108;2023-06-10T01:30:34;98374.59;;;15.04;90.79
34586;BME280;20816;50.950;11.108;2023-06-10T01:33:06;98382.75;;;14.79;92.34
34586;BME280;20816;50.950;11.108;2023-06-10T01:35:36;98381.19;;;14.74;92.62
34586;BME280;20816;50.950;11.108;2023-06-10T01:38:06;98384.44;;;14.60;93.75
34586;BME280;20816;50.950;11.108;2023-06-10T01:40:34;98379.13;;;14.38;95.14
34586;BME280;20816;50.950;11.108;2023-06-10T01:43:01;98378.66;;;14.28;96.62
34586;BME280;20816;50.950;11.108;2023-06-10T01:45:28;98376.69;;;14.34;95.57
34586;BME280;20816;50.950;11.108;2023-06-10T01:47:55;98382.88;;;14.32;95.24
34586;BME280;20816;50.950;11.108;2023-06-10T01:50:22;98383.00;;;14.29;96.04
34586;BME280;20816;50.950;11.108;2023-06-10T01:52:48;98377.97;;;14.23;96.31
34586;BME280;20816;50.950;11.108;2023-06-10T01:55:15;98377.00;;;14.26;96.18
34586;BME280;20816;50.950;11.108;2023-06-10T01:57:42;98369.66;;;14.32;96.21
34586;BME280;20816;50.950;11.108;2023-06-10T02:00:09;98371.03;;;14.43;95.30
34586;BME280;20816;50.950;11.108;2023-06-10T02:02:36;98376.06;;;14.49;95.09
34586;BME280;20816;50.950;11.108;2023-06-10T02:05:03;98378.03;;;14.44;95.12
34586;BME280;20816;50.950;11.108;2023-06-10T02:07:30;98380.13;;;14.36;95.84
34586;BME280;20816;50.950;11.108;2023-06-10T02:09:56;98379.38;;;14.32;96.37
34586;BME280;20816;50.950;11.108;2023-06-10T02:12:23;98376.56;;;14.37;96.67
34586;BME280;20816;50.950;11.108;2023-06-10T02:14:50;98376.41;;;14.40;96.30
34586;BME280;20816;50.950;11.108;2023-06-10T02:17:17;98368.69;;;14.35;95.54
34586;BME280;20816;50.950;11.108;2023-06-10T02:19:43;98371.41;;;14.34;95.60
34586;BME280;20816;50.950;11.108;2023-06-10T02:22:10;98382.22;;;14.27;96.23
34586;BME280;20816;50.950;11.108;2023-06-10T02:24:37;98387.50;;;14.27;96.51
34586;BME280;20816;50.950;11.108;2023-06-10T02:27:06;98383.63;;;14.14;96.50
34586;BME280;20816;50.950;11.108;2023-06-10T02:29:34;98388.41;;;14.05;98.02
34586;BME280;20816;50.950;11.108;2023-06-10T02:32:02;98399.06;;;14.03;98.28
34586;BME280;20816;50.950;11.108;2023-06-10T02:34:29;98396.50;;;14.00;98.34
34586;BME280;20816;50.950;11.108;2023-06-10T02:36:56;98391.66;;;13.89;98.78
34586;BME280;20816;50.950;11.108;2023-06-10T02:39:23;98393.00;;;13.78;99.32
34586;BME280;20816;50.950;11.108;2023-06-10T02:41:50;98394.00;;;13.73;99.65
34586;BME280;20816;50.950;11.108;2023-06-10T02:44:18;98394.13;;;13.70;100.00
34586;BME280;20816;50.950;11.108;2023-06-10T02:46:45;98406.00;;;13.82;100.00
34586;BME280;20816;50.950;11.108;2023-06-10T02:49:12;98406.00;;;13.82;100.00
34586;BME280;20816;50.950;11.108;2023-06-10T02:51:39;98406.66;;;13.89;100.00
34586;BME280;20816;50.950;11.108;2023-06-10T02:54:05;98412.06;;;13.86;100.00
34586;BME280;20816;50.950;11.108;2023-06-10T02:56:33;98411.06;;;13.88;100.00
34586;BME280;20816;50.950;11.108;2023-06-10T02:58:59;98410.22;;;13.88;100.00
34586;BME280;20816;50.950;11.108;2023-06-10T03:01:27;98405.28;;;13.79;100.00
34586;BME280;20816;50.950;11.108;2023-06-10T03:03:53;98400.91;;;13.78;100.00
34586;BME280;20816;50.950;11.108;2023-06-10T03:06:22;98414.47;;;13.68;100.00
34586;BME280;20816;50.950;11.108;2023-06-10T03:08:50;98402.28;;;13.64;100.00
34586;BME280;20816;50.950;11.108;2023-06-10T03:11:17;98404.34;;;13.56;100.00
34586;BME280;20816;50.950;11.108;2023-06-10T03:13:46;98415.03;;;13.53;100.00
34586;BME280;20816;50.950;11.108;2023-06-10T03:16:12;98417.19;;;13.42;100.00
34586;BME280;20816;50.950;11.108;2023-06-10T03:18:39;98413.03;;;13.35;100.00
34586;BME280;20816;50.950;11.108;2023-06-10T03:21:06;98405.03;;;13.38;100.00
34586;BME280;20816;50.950;11.108;2023-06-10T03:23:33;98410.19;;;13.41;100.00
34586;BME280;20816;50.950;11.108;2023-06-10T03:26:00;98410.19;;;13.41;100.00
34586;BME280;20816;50.950;11.108;2023-06-10T03:28:27;98407.16;;;13.28;100.00
34586;BME280;20816;50.950;11.108;2023-06-10T03:30:53;98409.78;;;13.28;100.00
34586;BME280;20816;50.950;11.108;2023-06-10T03:33:20;98411.22;;;13.37;100.00
34586;BME280;20816;50.950;11.108;2023-06-10T03:35:47;98420.22;;;13.31;100.00
34586;BME280;20816;50.950;11.108;2023-06-10T03:38:14;98418.38;;;13.33;100.00
34586;BME280;20816;50.950;11.108;2023-06-10T03:40:40;98419.25;;;13.34;100.00
34586;BME280;20816;50.950;11.108;2023-06-10T03:43:08;98420.53;;;13.47;100.00
34586;BME280;20816;50.950;11.108;2023-06-10T03:45:35;98424.56;;;13.57;100.00
34586;BME280;20816;50.950;11.108;2023-06-10T03:48:03;98422.69;;;13.61;100.00
34586;BME280;20816;50.950;11.108;2023-06-10T03:50:30;98421.81;;;13.60;100.00
34586;BME280;20816;50.950;11.108;2023-06-10T03:52:57;98413.91;;;13.60;100.00
34586;BME280;20816;50.950;11.108;2023-06-10T03:55:24;98415.34;;;13.69;100.00
34586;BME280;20816;50.950;11.108;2023-06-10T03:57:50;98415.94;;;13.75;100.00
34586;BME280;20816;50.950;11.108;2023-06-10T04:00:17;98417.44;;;13.83;100.00
34586;BME280;20816;50.950;11.108;2023-06-10T04:02:47;98424.22;;;13.90;100.00
34586;BME280;20816;50.950;11.108;2023-06-10T04:05:18;98425.69;;;13.97;100.00
34586;BME280;20816;50.950;11.108;2023-06-10T04:07:45;98422.94;;;14.00;100.00
34586;BME280;20816;50.950;11.108;2023-06-10T04:10:12;98421.00;;;14.05;100.00
34586;BME280;20816;50.950;11.108;2023-06-10T04:12:39;98421.56;;;14.13;100.00
34586;BME280;20816;50.950;11.108;2023-06-10T04:15:06;98421.41;;;14.16;100.00
34586;BME280;20816;50.950;11.108;2023-06-10T04:17:34;98420.53;;;14.17;100.00
34586;BME280;20816;50.950;11.108;2023-06-10T04:20:01;98428.09;;;14.26;100.00
34586;BME280;20816;50.950;11.108;2023-06-10T04:22:30;98419.72;;;14.37;100.00
34586;BME280;20816;50.950;11.108;2023-06-10T04:24:57;98427.16;;;14.51;100.00
34586;BME280;20816;50.950;11.108;2023-06-10T04:27:24;98430.19;;;14.62;100.00
34586;BME280;20816;50.950;11.108;2023-06-10T04:29:51;98433.88;;;14.80;100.00
34586;BME280;20816;50.950;11.108;2023-06-10T04:32:19;98439.84;;;15.05;100.00
34586;BME280;20816;50.950;11.108;2023-06-10T04:34:45;98445.09;;;15.27;100.00
34586;BME280;20816;50.950;11.108;2023-06-10T04:37:12;98443.16;;;15.51;100.00
34586;BME280;20816;50.950;11.108;2023-06-10T04:39:39;98437.66;;;15.76;98.29
34586;BME280;20816;50.950;11.108;2023-06-10T04:42:05;98439.09;;;15.83;98.14
34586;BME280;20816;50.950;11.108;2023-06-10T04:44:32;98443.44;;;16.05;96.90
34586;BME280;20816;50.950;11.108;2023-06-10T04:46:59;98437.69;;;16.14;96.39
34586;BME280;20816;50.950;11.108;2023-06-10T04:49:26;98445.72;;;16.31;95.58
34586;BME280;20816;50.950;11.108;2023-06-10T04:51:53;98438.00;;;16.44;94.87
34586;BME280;20816;50.950;11.108;2023-06-10T04:54:20;98443.44;;;16.60;95.01
34586;BME280;20816;50.950;11.108;2023-06-10T04:56:46;98446.16;;;16.77;94.29
34586;BME280;20816;50.950;11.108;2023-06-10T04:59:13;98441.50;;;16.99;93.77
34586;BME280;20816;50.950;11.108;2023-06-10T05:01:40;98443.47;;;17.13;92.90
34586;BME280;20816;50.950;11.108;2023-06-10T05:04:08;98449.25;;;17.38;91.76
34586;BME280;20816;50.950;11.108;2023-06-10T05:06:35;98443.75;;;17.42;91.61
34586;BME280;20816;50.950;11.108;2023-06-10T05:09:03;98434.13;;;17.56;91.34
34586;BME280;20816;50.950;11.108;2023-06-10T05:11:29;98451.56;;;17.62;91.27
34586;BME280;20816;50.950;11.108;2023-06-10T05:13:56;98445.69;;;17.73;90.43
34586;BME280;20816;50.950;11.108;2023-06-10T05:16:23;98449.13;;;17.75;89.61
34586;BME280;20816;50.950;11.108;2023-06-10T05:18:50;98451.06;;;17.88;89.69
34586;BME280;20816;50.950;11.108;2023-06-10T05:21:18;98463.03;;;18.13;88.24
34586;BME280;20816;50.950;11.108;2023-06-10T05:23:45;98456.31;;;18.06;87.87
34586;BME280;20816;50.950;11.108;2023-06-10T05:26:12;98452.63;;;18.24;88.20
34586;BME280;20816;50.950;11.108;2023-06-10T05:28:39;98463.66;;;18.34;87.00
34586;BME280;20816;50.950;11.108;2023-06-10T05:31:05;98453.50;;;18.56;85.48
34586;BME280;20816;50.950;11.108;2023-06-10T05:33:32;98461.78;;;18.67;85.58
34586;BME280;20816;50.950;11.108;2023-06-10T05:35:59;98457.31;;;18.68;85.38
34586;BME280;20816;50.950;11.108;2023-06-10T05:38:26;98461.69;;;18.85;84.12
34586;BME280;20816;50.950;11.108;2023-06-10T05:40:52;98463.66;;;18.81;84.34
34586;BME280;20816;50.950;11.108;2023-06-10T05:43:19;98462.59;;;18.99;84.17
34586;BME280;20816;50.950;11.108;2023-06-10T05:45:46;98469.78;;;19.13;83.33
34586;BME280;20816;50.950;11.108;2023-06-10T05:48:13;98461.66;;;19.30;83.19
34586;BME280;20816;50.950;11.108;2023-06-10T05:50:40;98467.00;;;19.30;82.67
34586;BME280;20816;50.950;11.108;2023-06-10T05:53:09;98468.16;;;19.41;81.99
34586;BME280;20816;50.950;11.108;2023-06-10T05:55:42;98471.97;;;19.51;82.11
34586;BME280;20816;50.950;11.108;2023-06-10T05:58:10;98479.88;;;19.52;82.88
34586;BME280;20816;50.950;11.108;2023-06-10T06:00:39;98480.31;;;19.60;82.05
34586;BME280;20816;50.950;11.108;2023-06-10T06:03:07;98474.91;;;19.76;81.00
34586;BME280;20816;50.950;11.108;2023-06-10T06:05:36;98472.47;;;19.87;81.22
34586;BME280;20816;50.950;11.108;2023-06-10T06:08:04;98474.03;;;19.76;81.50
34586;BME280;20816;50.950;11.108;2023-06-10T06:10:31;98470.34;;;20.21;80.05
34586;BME280;20816;50.950;11.108;2023-06-10T06:12:58;98468.59;;;20.34;80.06
34586;BME280;20816;50.950;11.108;2023-06-10T06:15:25;98464.34;;;20.46;79.04
34586;BME280;20816;50.950;11.108;2023-06-10T06:17:52;98465.66;;;20.53;78.59
34586;BME280;20816;50.950;11.108;2023-06-10T06:20:20;98467.94;;;20.86;78.26
34586;BME280;20816;50.950;11.108;2023-06-10T06:22:47;98470.06;;;20.81;78.00
34586;BME280;20816;50.950;11.108;2023-06-10T06:25:14;98462.09;;;21.34;76.75
34586;BME280;20816;50.950;11.108;2023-06-10T06:27:41;98466.63;;;21.46;76.40
34586;BME280;20816;50.950;11.108;2023-06-10T06:30:08;98467.63;;;21.83;74.87
34586;BME280;20816;50.950;11.108;2023-06-10T06:32:35;98469.34;;;21.84;74.59
34586;BME280;20816;50.950;11.108;2023-06-10T06:35:02;98472.84;;;22.35;72.69
34586;BME280;20816;50.950;11.108;2023-06-10T06:37:29;98470.25;;;22.47;72.41
34586;BME280;20816;50.950;11.108;2023-06-10T06:39:57;98473.28;;;22.42;72.92
34586;BME280;20816;50.950;11.108;2023-06-10T06:42:27;98475.59;;;22.59;71.74
34586;BME280;20816;50.950;11.108;2023-06-10T06:44:54;98476.84;;;22.66;71.51
34586;BME280;20816;50.950;11.108;2023-06-10T06:47:20;98475.34;;;22.62;72.25
34586;BME280;20816;50.950;11.108;2023-06-10T06:49:47;98480.19;;;22.94;71.41
34586;BME280;20816;50.950;11.108;2023-06-10T06:52:15;98479.94;;;23.21;70.90
34586;BME280;20816;50.950;11.108;2023-06-10T06:54:41;98481.00;;;23.66;70.21
34586;BME280;20816;50.950;11.108;2023-06-10T06:57:08;98490.38;;;23.61;69.40
34586;BME280;20816;50.950;11.108;2023-06-10T06:59:35;98497.22;;;23.65;69.65
34586;BME280;20816;50.950;11.108;2023-06-10T07:02:03;98490.81;;;23.19;69.95
34586;BME280;20816;50.950;11.108;2023-06-10T07:04:29;98486.06;;;23.58;69.44
34586;BME280;20816;50.950;11.108;2023-06-10T07:06:56;98481.47;;;23.36;70.16
34586;BME280;20816;50.950;11.108;2023-06-10T07:09:23;98491.69;;;23.55;70.24
34586;BME280;20816;50.950;11.108;2023-06-10T07:11:50;98485.91;;;23.72;69.44
34586;BME280;20816;50.950;11.108;2023-06-10T07:14:17;98484.97;;;24.29;67.36
34586;BME280;20816;50.950;11.108;2023-06-10T07:16:43;98493.50;;;23.90;69.62
34586;BME280;20816;50.950;11.108;2023-06-10T07:19:12;98494.16;;;24.49;66.98
34586;BME280;20816;50.950;11.108;2023-06-10T07:21:38;98492.75;;;24.88;66.52
34586;BME280;20816;50.950;11.108;2023-06-10T07:24:05;98490.19;;;25.30;65.11
34586;BME280;20816;50.950;11.108;2023-06-10T07:26:32;98488.91;;;25.13;65.45
34586;BME280;20816;50.950;11.108;2023-06-10T07:28:59;98492.69;;;25.22;65.29
34586;BME280;20816;50.950;11.108;2023-06-10T07:31:25;98490.31;;;24.85;66.14
34586;BME280;20816;50.950;11.108;2023-06-10T07:33:52;98488.63;;;25.49;64.64
34586;BME280;20816;50.950;11.108;2023-06-10T07:36:19;98478.66;;;25.39;64.29
34586;BME280;20816;50.950;11.108;2023-06-10T07:38:46;98481.22;;;25.41;63.56
34586;BME280;20816;50.950;11.108;2023-06-10T07:41:13;98479.59;;;25.50;65.22
34586;BME280;20816;50.950;11.108;2023-06-10T07:43:40;98482.66;;;25.77;64.44
34586;BME280;20816;50.950;11.108;2023-06-10T07:46:07;98476.81;;;25.72;64.28
34586;BME280;20816;50.950;11.108;2023-06-10T07:48:34;98483.69;;;26.07;63.23
34586;BME280;20816;50.950;11.108;2023-06-10T07:51:01;98478.66;;;26.23;63.79
34586;BME280;20816;50.950;11.108;2023-06-10T07:53:28;98476.84;;;25.82;64.92
34586;BME280;20816;50.950;11.108;2023-06-10T07:55:55;98475.78;;;26.15;64.44
34586;BME280;20816;50.950;11.108;2023-06-10T07:58:22;98478.63;;;25.51;65.83
34586;BME280;20816;50.950;11.108;2023-06-10T08:00:48;98473.66;;;26.39;63.82
34586;BME280;20816;50.950;11.108;2023-06-10T08:03:15;98487.31;;;26.47;62.73
34586;BME280;20816;50.950;11.108;2023-06-10T08:05:43;98476.72;;;26.35;63.17
34586;BME280;20816;50.950;11.108;2023-06-10T08:08:09;98481.91;;;26.47;63.12
34586;BME280;20816;50.950;11.108;2023-06-10T08:10:36;98475.19;;;26.72;61.96
34586;BME280;20816;50.950;11.108;2023-06-10T08:13:03;98472.84;;;27.56;62.04
34586;BME280;20816;50.950;11.108;2023-06-10T08:15:30;98468.16;;;27.39;61.32
34586;BME280;20816;50.950;11.108;2023-06-10T08:17:56;98472.69;;;27.58;60.61
34586;BME280;20816;50.950;11.108;2023-06-10T08:20:24;98470.44;;;27.15;61.17
34586;BME280;20816;50.950;11.108;2023-06-10T08:22:51;98468.59;;;27.34;61.47
34586;BME280;20816;50.950;11.108;2023-06-10T08:25:17;98476.41;;;27.67;60.84
34586;BME280;20816;50.950;11.108;2023-06-10T08:27:44;98472.94;;;27.93;59.56
34586;BME280;20816;50.950;11.108;2023-06-10T08:30:11;98473.50;;;27.97;60.12
34586;BME280;20816;50.950;11.108;2023-06-10T08:32:39;98480.91;;;27.95;60.38
34586;BME280;20816;50.950;11.108;2023-06-10T08:35:07;98481.34;;;27.90;60.49
34586;BME280;20816;50.950;11.108;2023-06-10T08:37:34;98474.78;;;27.93;60.59
34586;BME280;20816;50.950;11.108;2023-06-10T08:40:03;98478.22;;;27.95;60.24
34586;BME280;20816;50.950;11.108;2023-06-10T08:42:36;98471.94;;;28.04;59.58
34586;BME280;20816;50.950;11.108;2023-06-10T08:45:07;98473.41;;;27.50;61.59
34586;BME280;20816;50.950;11.108;2023-06-10T08:47:42;98472.59;;;27.21;61.73
34586;BME280;20816;50.950;11.108;2023-06-10T08:50:11;98479.50;;;27.52;62.11
34586;BME280;20816;50.950;11.108;2023-06-10T08:52:42;98470.25;;;27.84;60.97
34586;BME280;20816;50.950;11.108;2023-06-10T08:55:24;98460.81;;;28.54;59.85
34586;BME280;20816;50.950;11.108;2023-06-10T08:57:59;98472.56;;;27.79;61.20
34586;BME280;20816;50.950;11.108;2023-06-10T09:00:27;98477.16;;;28.15;59.84
34586;BME280;20816;50.950;11.108;2023-06-10T09:02:55;98470.84;;;28.34;60.48
34586;BME280;20816;50.950;11.108;2023-06-10T09:05:23;98465.16;;;28.28;60.99
34586;BME280;20816;50.950;11.108;2023-06-10T09:07:51;98472.84;;;28.23;61.42
34586;BME280;20816;50.950;11.108;2023-06-10T09:10:18;98476.81;;;28.65;60.20
34586;BME280;20816;50.950;11.108;2023-06-10T09:12:45;98476.22;;;28.44;60.79
34586;BME280;20816;50.950;11.108;2023-06-10T09:15:12;98476.22;;;28.44;60.66
34586;BME280;20816;50.950;11.108;2023-06-10T09:17:41;98473.25;;;28.65;59.78
34586;BME280;20816;50.950;11.108;2023-06-10T09:20:08;98474.31;;;28.82;59.98
34586;BME280;20816;50.950;11.108;2023-06-10T09:22:36;98473.06;;;29.03;59.66
34586;BME280;20816;50.950;11.108;2023-06-10T09:25:08;98469.94;;;28.06;61.58
34586;BME280;20816;50.950;11.108;2023-06-10T09:30:28;98468.28;;;28.88;58.98
34586;BME280;20816;50.950;11.108;2023-06-10T09:32:57;98463.94;;;29.04;58.19
34586;BME280;20816;50.950;11.108;2023-06-10T09:35:26;98469.72;;;28.92;59.51
34586;BME280;20816;50.950;11.108;2023-06-10T09:37:55;98466.31;;;28.35;60.38
34586;BME280;20816;50.950;11.108;2023-06-10T09:40:21;98461.88;;;29.16;59.60
34586;BME280;20816;50.950;11.108;2023-06-10T09:42:55;98466.13;;;29.19;57.59
34586;BME280;20816;50.950;11.108;2023-06-10T09:45:23;98467.97;;;29.18;58.12
34586;BME280;20816;50.950;11.108;2023-06-10T09:47:53;98455.81;;;29.04;57.18
34586;BME280;20816;50.950;11.108;2023-06-10T09:50:20;98464.41;;;29.00;57.25
34586;BME280;20816;50.950;11.108;2023-06-10T09:52:47;98449.47;;;29.67;56.10
34586;BME280;20816;50.950;11.108;2023-06-10T09:55:15;98457.63;;;29.49;57.18
34586;BME280;20816;50.950;11.108;2023-06-10T09:57:42;98455.88;;;29.48;56.89
34586;BME280;20816;50.950;11.108;2023-06-10T10:00:12;98453.31;;;29.82;56.11
34586;BME280;20816;50.950;11.108;2023-06-10T10:02:47;98453.47;;;29.63;54.95
34586;BME280;20816;50.950;11.108;2023-06-10T10:05:19;98454.97;;;29.57;55.62
34586;BME280;20816;50.950;11.108;2023-06-10T10:07:47;98451.19;;;30.20;55.15
34586;BME280;20816;50.950;11.108;2023-06-10T10:10:15;98447.50;;;30.29;54.87
34586;BME280;20816;50.950;11.108;2023-06-10T10:12:42;98445.03;;;30.44;54.93
34586;BME280;20816;50.950;11.108;2023-06-10T10:15:11;98440.91;;;30.06;55.87
34586;BME280;20816;50.950;11.108;2023-06-10T10:17:46;98434.78;;;30.04;56.34
34586;BME280;20816;50.950;11.108;2023-06-10T10:20:18;98444.53;;;30.49;54.15
34586;BME280;20816;50.950;11.108;2023-06-10T10:22:47;98438.47;;;29.95;54.83
34586;BME280;20816;50.950;11.108;2023-06-10T10:25:17;98434.28;;;30.00;55.69
34586;BME280;20816;50.950;11.108;2023-06-10T10:28:11;98434.63;;;30.31;54.58
34586;BME280;20816;50.950;11.108;2023-06-10T10:30:50;98427.53;;;30.30;54.00
34586;BME280;20816;50.950;11.108;2023-06-10T10:33:35;98426.66;;;29.34;56.03
34586;BME280;20816;50.950;11.108;2023-06-10T10:36:03;98420.28;;;29.61;55.03
34586;BME280;20816;50.950;11.108;2023-06-10T10:38:31;98423.56;;;29.73;55.65
34586;BME280;20816;50.950;11.108;2023-06-10T10:40:58;98425.19;;;29.04;57.51
34586;BME280;20816;50.950;11.108;2023-06-10T10:43:27;98424.19;;;29.05;56.34
34586;BME280;20816;50.950;11.108;2023-06-10T10:46:01;98415.44;;;29.11;56.71
34586;BME280;20816;50.950;11.108;2023-06-10T10:48:35;98411.69;;;29.48;57.51
34586;BME280;20816;50.950;11.108;2023-06-10T10:51:03;98415.41;;;29.47;56.47
34586;BME280;20816;50.950;11.108;2023-06-10T10:53:30;98413.72;;;29.46;55.45
34586;BME280;20816;50.950;11.108;2023-06-10T10:56:14;98414.94;;;29.69;55.90
34586;BME280;20816;50.950;11.108;2023-06-10T10:58:41;98418.59;;;30.12;55.70
34586;BME280;20816;50.950;11.108;2023-06-10T11:01:12;98408.59;;;30.12;55.13
34586;BME280;20816;50.950;11.108;2023-06-10T11:03:46;98426.78;;;29.68;55.99
34586;BME280;20816;50.950;11.108;2023-06-10T11:06:18;98424.03;;;29.07;57.05
34586;BME280;20816;50.950;11.108;2023-06-10T11:08:46;98403.06;;;29.26;56.83
34586;BME280;20816;50.950;11.108;2023-06-10T11:11:22;98411.03;;;29.28;58.42
34586;BME280;20816;50.950;11.108;2023-06-10T11:16:28;98407.47;;;29.27;57.48
34586;BME280;20816;50.950;11.108;2023-06-10T11:18:56;98418.41;;;29.00;56.90
34586;BME280;20816;50.950;11.108;2023-06-10T11:21:24;98413.00;;;29.00;57.41
34586;BME280;20816;50.950;11.108;2023-06-10T11:23:57;98411.41;;;29.51;57.13
34586;BME280;20816;50.950;11.108;2023-06-10T11:29:04;98405.66;;;29.54;57.19
34586;BME280;20816;50.950;11.108;2023-06-10T11:31:42;98402.03;;;29.45;56.74
34586;BME280;20816;50.950;11.108;2023-06-10T11:34:09;98405.94;;;29.25;57.32
34586;BME280;20816;50.950;11.108;2023-06-10T11:36:39;98397.66;;;29.26;58.20
34586;BME280;20816;50.950;11.108;2023-06-10T11:39:09;98399.22;;;29.11;57.88
34586;BME280;20816;50.950;11.108;2023-06-10T11:41:37;98403.66;;;29.56;57.38
34586;BME280;20816;50.950;11.108;2023-06-10T11:44:12;98397.81;;;29.95;55.64
34586;BME280;20816;50.950;11.108;2023-06-10T11:46:45;98396.41;;;29.21;57.48
34586;BME280;20816;50.950;11.108;2023-06-10T11:49:12;98397.72;;;29.52;56.84
34586;BME280;20816;50.950;11.108;2023-06-10T11:51:39;98388.06;;;29.50;56.59
34586;BME280;20816;50.950;11.108;2023-06-10T11:54:10;98387.19;;;29.75;57.81
34586;BME280;20816;50.950;11.108;2023-06-10T11:56:37;98384.16;;;29.78;56.93
34586;BME280;20816;50.950;11.108;2023-06-10T11:59:07;98385.75;;;29.19;56.92
34586;BME280;20816;50.950;11.108;2023-06-10T12:01:36;98390.81;;;28.87;58.14
34586;BME280;20816;50.950;11.108;2023-06-10T12:04:09;98394.53;;;28.86;57.82
34586;BME280;20816;50.950;11.108;2023-06-10T12:11:58;98384.34;;;29.15;57.69
34586;BME280;20816;50.950;11.108;2023-06-10T12:14:52;98385.31;;;29.32;58.12
34586;BME280;20816;50.950;11.108;2023-06-10T12:17:24;98377.13;;;29.42;57.57
34586;BME280;20816;50.950;11.108;2023-06-10T12:20:05;98393.34;;;29.85;57.49
34586;BME280;20816;50.950;11.108;2023-06-10T12:22:42;98391.31;;;29.87;57.13
34586;BME280;20816;50.950;11.108;2023-06-10T12:25:13;98387.13;;;29.93;56.63
34586;BME280;20816;50.950;11.108;2023-06-10T12:27:53;98377.63;;;30.15;56.42
34586;BME280;20816;50.950;11.108;2023-06-10T12:30:21;98384.75;;;30.16;56.57
34586;BME280;20816;50.950;11.108;2023-06-10T12:32:48;98385.69;;;30.07;55.15
34586;BME280;20816;50.950;11.108;2023-06-10T12:35:21;98376.53;;;30.42;54.21
34586;BME280;20816;50.950;11.108;2023-06-10T12:40:36;98370.50;;;30.14;56.33
34586;BME280;20816;50.950;11.108;2023-06-10T12:43:03;98381.56;;;29.69;56.29
34586;BME280;20816;50.950;11.108;2023-06-10T12:45:33;98372.41;;;29.96;56.89
34586;BME280;20816;50.950;11.108;2023-06-10T12:48:29;98373.09;;;28.57;59.23
34586;BME280;20816;50.950;11.108;2023-06-10T12:50:58;98367.94;;;28.63;59.81
34586;BME280;20816;50.950;11.108;2023-06-10T12:53:25;98379.88;;;29.06;58.64
34586;BME280;20816;50.950;11.108;2023-06-10T12:55:55;98369.34;;;29.47;58.04
34586;BME280;20816;50.950;11.108;2023-06-10T12:58:22;98370.81;;;30.11;56.96
34586;BME280;20816;50.950;11.108;2023-06-10T13:00:49;98361.88;;;30.19;56.52
34586;BME280;20816;50.950;11.108;2023-06-10T13:03:19;98363.75;;;29.22;57.59
34586;BME280;20816;50.950;11.108;2023-06-10T13:05:47;98368.88;;;29.08;57.65
34586;BME280;20816;50.950;11.108;2023-06-10T13:08:13;98362.53;;;28.99;57.79
34586;BME280;20816;50.950;11.108;2023-06-10T13:10:40;98357.84;;;29.45;56.57
34586;BME280;20816;50.950;11.108;2023-06-10T13:13:07;98357.53;;;30.00;55.00
34586;BME280;20816;50.950;11.108;2023-06-10T13:15:36;98369.97;;;29.84;54.64
34586;BME280;20816;50.950;11.108;2023-06-10T13:18:08;98354.91;;;30.16;55.18